Time;durP1;ratioP1;P1;durP2;ratioP2;P2;SDS_P1;SDS_P2;PMS_P1;PMS_P2;Temp;Humidity;BMP_temperature;BMP_pressure;BME280_temperature;BME280_humidity;BME280_pressure;Samples;Min_cycle;Max_cycle;Signal;HPM_P1;HPM_P2
2022/06/11 00:02:20;;;;;;;2.78;1.70;;;20.00;70.30;;;;;;5036823;28;20059;-74
2022/06/11 00:04:46;;;;;;;2.40;1.90;;;20.00;70.70;;;;;;5031956;28;20149;-74
2022/06/11 00:07:16;;;;;;;2.38;1.67;;;20.00;71.80;;;;;;5040134;28;20427;-74
2022/06/11 00:09:42;;;;;;;1.92;1.73;;;20.00;71.40;;;;;;5032800;28;20087;-74
2022/06/11 00:12:09;;;;;;;2.90;1.80;;;20.00;71.90;;;;;;5030097;28;20509;-74
2022/06/11 00:14:35;;;;;;;4.57;1.92;;;20.10;71.70;;;;;;5040184;28;20036;-73
2022/06/11 00:17:03;;;;;;;2.63;1.88;;;20.00;71.40;;;;;;5037654;28;20037;-74
2022/06/11 00:19:29;;;;;;;3.20;2.05;;;20.00;71.30;;;;;;5032483;28;20037;-74
2022/06/11 00:21:56;;;;;;;3.65;2.15;;;20.00;71.20;;;;;;5036257;28;20145;-74
2022/06/11 00:24:24;;;;;;;2.92;1.90;;;20.00;71.40;;;;;;5036051;28;20025;-74
2022/06/11 00:26:51;;;;;;;2.17;1.77;;;20.00;71.70;;;;;;5036944;28;20021;-73
2022/06/11 00:29:19;;;;;;;3.97;1.73;;;19.90;71.80;;;;;;5048215;28;20136;-73
2022/06/11 00:31:46;;;;;;;3.30;1.90;;;19.90;71.80;;;;;;5036660;28;20024;-73
2022/06/11 00:34:12;;;;;;;3.17;2.20;;;19.90;71.90;;;;;;5035642;28;20112;-74
2022/06/11 00:36:38;;;;;;;3.25;1.80;;;19.80;72.00;;;;;;5035424;28;20037;-74
2022/06/11 00:39:07;;;;;;;2.45;2.17;;;19.80;72.60;;;;;;5036360;28;20137;-74
2022/06/11 00:41:35;;;;;;;2.25;2.00;;;19.80;72.20;;;;;;5031452;28;20115;-74
2022/06/11 00:44:01;;;;;;;4.13;2.22;;;19.70;71.90;;;;;;5036384;28;20095;-73
2022/06/11 00:46:46;;;;;;;4.97;1.90;;;19.70;72.10;;;;;;5039590;28;20112;-74
2022/06/11 00:49:32;;;;;;;2.47;1.88;;;19.70;72.20;;;;;;5038643;28;20043;-74
2022/06/11 00:52:35;;;;;;;3.60;2.20;;;19.60;72.40;;;;;;5037552;28;20899;-74
2022/06/11 00:55:01;;;;;;;2.80;1.92;;;19.60;72.00;;;;;;5035710;28;20045;-74
2022/06/11 00:57:30;;;;;;;2.17;1.75;;;19.50;71.90;;;;;;5035827;28;20041;-73
2022/06/11 01:00:07;;;;;;;3.53;1.90;;;19.50;71.70;;;;;;5030915;28;20077;-73
2022/06/11 01:02:33;;;;;;;3.35;2.20;;;19.40;72.40;;;;;;5037301;28;20110;-74
2022/06/11 01:05:01;;;;;;;2.85;1.90;;;19.30;72.80;;;;;;5039196;28;20676;-74
2022/06/11 01:07:39;;;;;;;4.35;2.17;;;19.30;72.70;;;;;;5036005;28;20125;-74
2022/06/11 01:10:11;;;;;;;4.90;2.20;;;19.20;73.60;;;;;;5032588;28;20040;-74
2022/06/11 01:12:52;;;;;;;3.20;1.60;;;19.20;73.40;;;;;;5035925;28;20029;-74
2022/06/11 01:15:43;;;;;;;5.45;2.05;;;19.10;73.00;;;;;;5039645;28;20028;-74
2022/06/11 01:18:31;;;;;;;3.92;2.20;;;19.10;72.60;;;;;;5032903;28;20052;-74
2022/06/11 01:21:27;;;;;;;5.55;2.35;;;19.00;72.40;;;;;;5032629;28;20029;-74
2022/06/11 01:24:21;;;;;;;2.05;1.80;;;19.00;72.90;;;;;;5037734;28;20037;-74
2022/06/11 01:26:59;;;;;;;2.70;1.90;;;18.90;73.60;;;;;;5030513;28;20041;-73
2022/06/11 01:29:53;;;;;;;3.60;2.13;;;18.90;74.50;;;;;;5036175;28;20035;-74
2022/06/11 01:32:32;;;;;;;2.20;2.00;;;18.90;74.30;;;;;;5033608;28;20037;-74
2022/06/11 01:35:16;;;;;;;2.75;2.13;;;18.90;74.20;;;;;;5033497;28;20052;-74
2022/06/11 01:37:45;;;;;;;3.92;2.22;;;18.90;74.80;;;;;;5029647;28;20567;-74
2022/06/11 01:40:19;;;;;;;4.00;2.15;;;18.80;75.60;;;;;;5034981;28;20094;-74
2022/06/11 01:43:11;;;;;;;3.15;2.58;;;18.70;75.90;;;;;;5034631;28;20793;-74
2022/06/11 01:45:38;;;;;;;4.43;2.70;;;18.70;76.20;;;;;;5031017;28;20048;-74
2022/06/11 01:48:07;;;;;;;2.30;2.10;;;18.70;76.10;;;;;;5034368;28;20044;-75
2022/06/11 01:50:39;;;;;;;4.10;2.08;;;18.60;76.00;;;;;;5030112;28;20033;-74
2022/06/11 01:53:23;;;;;;;4.68;2.72;;;18.50;76.10;;;;;;5034397;28;20194;-74
2022/06/11 01:55:52;;;;;;;3.92;2.47;;;18.50;76.20;;;;;;5033279;28;20025;-74
2022/06/11 01:58:35;;;;;;;4.30;2.70;;;18.40;76.60;;;;;;5041731;28;20793;-74
2022/06/11 02:01:19;;;;;;;4.22;2.42;;;18.40;77.20;;;;;;5038525;28;20056;-74
2022/06/11 02:04:00;;;;;;;2.55;2.35;;;18.40;78.10;;;;;;5035736;28;20028;-74
2022/06/11 02:06:54;;;;;;;4.70;2.45;;;18.30;78.30;;;;;;5036187;28;20211;-74
2022/06/11 02:09:35;;;;;;;3.15;2.42;;;18.40;78.60;;;;;;5006954;28;20072;-74
2022/06/11 02:12:07;;;;;;;3.40;2.47;;;18.30;78.50;;;;;;5034124;28;20036;-74
2022/06/11 02:14:44;;;;;;;4.38;2.60;;;18.40;78.60;;;;;;5034396;28;20033;-74
2022/06/11 02:17:15;;;;;;;9.70;2.60;;;18.30;78.50;;;;;;5043555;28;20037;-75
2022/06/11 02:19:49;;;;;;;3.28;2.50;;;18.30;78.80;;;;;;5034052;28;20124;-74
2022/06/11 02:22:22;;;;;;;4.18;2.53;;;18.30;79.00;;;;;;5049382;28;20127;-75
2022/06/11 02:24:53;;;;;;;7.03;2.90;;;18.30;79.10;;;;;;5031985;28;20076;-74
2022/06/11 02:27:25;;;;;;;4.63;2.80;;;18.20;79.00;;;;;;5037893;28;20033;-74
2022/06/11 02:29:53;;;;;;;5.47;2.65;;;18.30;79.20;;;;;;5033767;28;20036;-74
2022/06/11 02:32:22;;;;;;;5.97;2.60;;;18.30;79.40;;;;;;5034951;28;20033;-74
2022/06/11 02:34:56;;;;;;;2.80;2.55;;;18.30;79.40;;;;;;5034440;28;20043;-74
2022/06/11 02:37:36;;;;;;;4.80;2.83;;;18.20;79.30;;;;;;5035276;28;20510;-74
2022/06/11 02:40:16;;;;;;;3.85;2.78;;;18.30;79.30;;;;;;5031198;28;20161;-74
2022/06/11 02:42:43;;;;;;;4.95;2.75;;;18.30;79.70;;;;;;5032193;28;20092;-74
2022/06/11 02:45:12;;;;;;;4.95;2.83;;;18.20;79.10;;;;;;5038438;28;20047;-74
2022/06/11 02:47:45;;;;;;;5.22;2.50;;;18.30;79.00;;;;;;5036211;28;20929;-74
2022/06/11 02:50:30;;;;;;;3.00;2.70;;;18.30;79.30;;;;;;5035554;28;20194;-74
2022/06/11 02:52:58;;;;;;;3.00;2.40;;;18.30;78.90;;;;;;5038282;28;20029;-74
2022/06/11 02:55:25;;;;;;;2.97;2.60;;;18.30;78.20;;;;;;5032728;28;20123;-74
2022/06/11 02:57:51;;;;;;;5.50;2.80;;;18.30;77.80;;;;;;5034134;28;20086;-74
2022/06/11 03:00:21;;;;;;;4.32;2.80;;;18.40;77.80;;;;;;5042527;28;20395;-74
2022/06/11 03:02:48;;;;;;;3.78;2.50;;;18.40;78.00;;;;;;5040851;28;20437;-74
2022/06/11 03:05:21;;;;;;;3.80;2.30;;;18.40;77.10;;;;;;5035234;28;20039;-74
2022/06/11 03:07:48;;;;;;;4.53;2.80;;;18.50;77.00;;;;;;5040484;28;20139;-74
2022/06/11 03:10:17;;;;;;;4.80;2.70;;;18.50;77.00;;;;;;5043388;28;20029;-74
2022/06/11 03:12:43;;;;;;;3.05;2.22;;;18.60;76.30;;;;;;5041480;28;20063;-74
2022/06/11 03:15:11;;;;;;;2.50;2.30;;;18.60;76.20;;;;;;5041129;28;20149;-74
2022/06/11 03:17:37;;;;;;;4.60;2.67;;;18.60;76.50;;;;;;5036049;28;20029;-74
2022/06/11 03:20:05;;;;;;;3.08;2.60;;;18.70;76.60;;;;;;5033356;28;20041;-74
2022/06/11 03:22:31;;;;;;;2.58;2.20;;;18.70;76.40;;;;;;5036603;28;20397;-74
2022/06/11 03:24:57;;;;;;;2.83;2.38;;;18.80;76.20;;;;;;5038475;28;20037;-74
2022/06/11 03:27:23;;;;;;;4.65;2.88;;;18.80;75.60;;;;;;5035252;28;20029;-74
2022/06/11 03:29:49;;;;;;;3.45;2.42;;;18.90;75.10;;;;;;5038765;28;20025;-74
2022/06/11 03:32:15;;;;;;;2.78;2.38;;;18.80;74.50;;;;;;5037032;28;20079;-74
2022/06/11 03:34:41;;;;;;;4.60;2.80;;;18.90;74.70;;;;;;5038005;28;20039;-74
2022/06/11 03:37:07;;;;;;;2.67;2.47;;;18.90;75.10;;;;;;5033104;28;20047;-74
2022/06/11 03:39:33;;;;;;;3.50;2.63;;;19.00;76.10;;;;;;5038129;28;20801;-74
2022/06/11 03:41:59;;;;;;;3.28;2.50;;;19.00;76.50;;;;;;5035577;28;20041;-74
2022/06/11 03:44:25;;;;;;;4.50;2.83;;;19.00;76.70;;;;;;5039548;28;20167;-74
2022/06/11 03:46:51;;;;;;;4.15;2.80;;;19.00;76.60;;;;;;5033212;28;20032;-74
2022/06/11 03:49:18;;;;;;;3.08;2.55;;;19.00;76.80;;;;;;5035736;28;20091;-74
2022/06/11 03:51:44;;;;;;;3.45;2.55;;;19.00;76.90;;;;;;5037969;28;20044;-74
2022/06/11 03:54:11;;;;;;;3.85;2.70;;;19.10;77.00;;;;;;5041388;28;20033;-74
2022/06/11 03:56:38;;;;;;;3.20;2.65;;;19.10;76.90;;;;;;5036875;28;20036;-74
2022/06/11 03:59:05;;;;;;;2.80;2.42;;;19.10;76.50;;;;;;5039142;28;20087;-74
2022/06/11 04:01:32;;;;;;;5.50;2.53;;;19.20;77.30;;;;;;5038428;28;20174;-74
2022/06/11 04:04:01;;;;;;;3.05;2.20;;;19.20;75.90;;;;;;5038972;28;20158;-74
2022/06/11 04:06:49;;;;;;;3.15;2.50;;;19.30;74.80;;;;;;5033730;28;20132;-74
2022/06/11 04:09:31;;;;;;;3.15;2.20;;;19.30;73.90;;;;;;5030431;28;20144;-74
2022/06/11 04:11:57;;;;;;;4.43;2.33;;;19.40;73.30;;;;;;5033249;28;20473;-74
2022/06/11 04:14:23;;;;;;;5.82;2.00;;;19.40;73.10;;;;;;5035341;28;20033;-74
2022/06/11 04:16:53;;;;;;;2.92;2.58;;;19.50;73.30;;;;;;5036442;28;20496;-74
2022/06/11 04:19:25;;;;;;;4.55;2.08;;;19.60;73.20;;;;;;5032868;28;20029;-74
2022/06/11 04:21:52;;;;;;;4.15;2.22;;;19.60;73.00;;;;;;5037025;28;20033;-74
2022/06/11 04:24:20;;;;;;;3.15;2.45;;;19.60;72.80;;;;;;5049238;28;20028;-74
2022/06/11 04:26:48;;;;;;;2.95;2.28;;;19.70;72.70;;;;;;5033141;28;20025;-74
2022/06/11 04:29:18;;;;;;;2.95;2.33;;;19.70;73.00;;;;;;5034452;28;20091;-74
2022/06/11 04:31:47;;;;;;;4.05;2.50;;;19.80;73.30;;;;;;5035233;28;20102;-74
2022/06/11 04:34:14;;;;;;;5.78;2.95;;;19.80;73.40;;;;;;5033005;28;20797;-74
2022/06/11 04:36:42;;;;;;;4.78;2.35;;;19.90;72.90;;;;;;5035904;28;20060;-74
2022/06/11 04:39:09;;;;;;;5.38;2.50;;;20.00;72.90;;;;;;5034789;28;20028;-74
2022/06/11 04:41:35;;;;;;;4.80;2.78;;;20.00;72.00;;;;;;5037694;28;20036;-74
2022/06/11 04:44:02;;;;;;;2.50;2.30;;;20.10;72.50;;;;;;5034238;28;20768;-74
2022/06/11 04:46:28;;;;;;;4.28;2.20;;;20.10;73.10;;;;;;5050001;28;20033;-74
2022/06/11 04:48:54;;;;;;;3.78;2.47;;;20.20;72.70;;;;;;5034974;28;20025;-74
2022/06/11 04:51:20;;;;;;;3.60;2.70;;;20.20;72.40;;;;;;5035908;28;20079;-74
2022/06/11 04:53:47;;;;;;;2.88;2.33;;;20.20;72.80;;;;;;5033846;28;20030;-74
2022/06/11 04:56:16;;;;;;;4.45;2.70;;;20.30;73.10;;;;;;5037446;28;20048;-74
2022/06/11 04:58:44;;;;;;;5.80;2.85;;;20.30;73.00;;;;;;5044571;28;20091;-75
2022/06/11 05:01:10;;;;;;;3.60;2.35;;;20.30;73.30;;;;;;5037765;28;20037;-74
2022/06/11 05:03:36;;;;;;;4.20;2.38;;;20.40;72.30;;;;;;5036582;28;20037;-74
2022/06/11 05:06:02;;;;;;;7.75;2.83;;;20.40;72.90;;;;;;5034283;28;20071;-74
2022/06/11 05:08:29;;;;;;;2.80;2.38;;;20.40;71.50;;;;;;5033720;28;20024;-74
2022/06/11 05:10:54;;;;;;;3.50;2.20;;;20.50;72.20;;;;;;5033407;28;20029;-74
2022/06/11 05:13:20;;;;;;;4.38;2.42;;;20.50;71.70;;;;;;5040448;28;20039;-74
2022/06/11 05:15:50;;;;;;;3.55;2.30;;;20.60;72.20;;;;;;5037699;28;20032;-74
2022/06/11 05:18:16;;;;;;;6.68;2.58;;;20.80;71.10;;;;;;5030599;28;20041;-74
2022/06/11 05:20:43;;;;;;;3.83;2.53;;;20.80;69.80;;;;;;5037756;28;20037;-74
2022/06/11 05:23:09;;;;;;;3.75;2.30;;;20.90;69.20;;;;;;5032222;28;20107;-74
2022/06/11 05:25:38;;;;;;;7.78;2.72;;;21.00;69.30;;;;;;5035686;28;20060;-74
2022/06/11 05:28:06;;;;;;;5.05;2.80;;;21.10;69.20;;;;;;5043987;28;20110;-74
2022/06/11 05:30:32;;;;;;;4.05;2.28;;;21.10;68.20;;;;;;5032133;28;20107;-74
2022/06/11 05:33:00;;;;;;;5.57;2.40;;;21.20;68.00;;;;;;5035047;28;20029;-74
2022/06/11 05:35:29;;;;;;;5.07;2.28;;;21.20;68.00;;;;;;5031956;28;20037;-74
2022/06/11 05:37:57;;;;;;;4.50;2.38;;;21.30;68.10;;;;;;5035320;28;20033;-74
2022/06/11 05:40:31;;;;;;;3.30;2.55;;;21.50;67.30;;;;;;5035372;28;20500;-74
2022/06/11 05:42:57;;;;;;;4.18;2.33;;;21.60;67.20;;;;;;5038000;28;20078;-74
2022/06/11 05:45:40;;;;;;;4.07;2.63;;;21.80;66.60;;;;;;5044648;28;20671;-74
2022/06/11 05:48:08;;;;;;;4.53;2.70;;;21.90;66.20;;;;;;5036598;28;20028;-74
2022/06/11 05:50:39;;;;;;;5.75;2.50;;;22.00;65.40;;;;;;5032493;28;20918;-74
2022/06/11 05:53:07;;;;;;;4.05;2.10;;;22.00;65.10;;;;;;5039324;28;20029;-74
2022/06/11 05:55:37;;;;;;;5.18;2.72;;;22.10;64.30;;;;;;5035369;28;20647;-74
2022/06/11 05:58:07;;;;;;;7.80;2.50;;;22.20;64.00;;;;;;5037270;28;20064;-74
2022/06/11 06:00:34;;;;;;;5.57;2.53;;;22.30;63.50;;;;;;5035750;28;20123;-74
2022/06/11 06:03:00;;;;;;;6.05;2.38;;;22.40;63.90;;;;;;5033662;28;20117;-74
2022/06/11 06:05:28;;;;;;;2.50;2.22;;;22.60;63.80;;;;;;5033289;28;20670;-75
2022/06/11 06:07:55;;;;;;;4.72;2.25;;;22.60;63.10;;;;;;5030684;28;20024;-75
2022/06/11 06:10:21;;;;;;;5.07;2.15;;;22.60;62.10;;;;;;5036770;28;20765;-75
2022/06/11 06:12:47;;;;;;;4.55;2.15;;;22.60;62.30;;;;;;5036425;28;20029;-74
2022/06/11 06:15:18;;;;;;;5.57;2.20;;;22.70;62.60;;;;;;5037663;28;20057;-74
2022/06/11 06:17:44;;;;;;;3.10;2.10;;;22.80;61.30;;;;;;5037123;28;20024;-74
2022/06/11 06:20:13;;;;;;;8.60;2.38;;;22.80;61.80;;;;;;5034492;28;20087;-74
2022/06/11 06:22:40;;;;;;;6.78;2.08;;;22.90;61.50;;;;;;5028419;28;20018;-74
2022/06/11 06:25:06;;;;;;;4.43;2.15;;;23.00;61.60;;;;;;5034864;28;20029;-74
2022/06/11 06:27:32;;;;;;;6.78;2.50;;;23.00;61.10;;;;;;5033476;28;20885;-74
2022/06/11 06:29:57;;;;;;;11.15;2.75;;;23.00;60.80;;;;;;5028739;28;20033;-74
2022/06/11 06:32:23;;;;;;;4.20;2.10;;;23.10;60.70;;;;;;5032061;28;20564;-74
2022/06/11 06:34:49;;;;;;;3.08;1.98;;;23.10;60.40;;;;;;5032380;28;20025;-74
2022/06/11 06:37:15;;;;;;;6.05;2.30;;;23.20;60.00;;;;;;5028699;28;20047;-74
2022/06/11 06:39:41;;;;;;;4.38;1.95;;;23.30;59.90;;;;;;5031103;28;20051;-73
2022/06/11 06:42:07;;;;;;;6.72;2.25;;;23.40;59.60;;;;;;5031878;28;20115;-68
2022/06/11 06:44:35;;;;;;;6.55;1.75;;;23.70;59.00;;;;;;5033154;28;20030;-75
2022/06/11 06:47:01;;;;;;;2.70;2.00;;;23.80;58.00;;;;;;5036192;28;20102;-76
2022/06/11 06:49:27;;;;;;;9.43;2.50;;;23.80;57.60;;;;;;5029338;28;20033;-76
2022/06/11 06:51:53;;;;;;;5.18;2.15;;;23.90;57.80;;;;;;5029478;28;20572;-76
2022/06/11 06:54:19;;;;;;;4.97;1.98;;;24.10;57.20;;;;;;5035630;28;20033;-70
2022/06/11 06:56:45;;;;;;;6.60;1.98;;;24.10;56.90;;;;;;5036150;28;20029;-79
2022/06/11 06:59:11;;;;;;;6.00;1.88;;;24.20;56.30;;;;;;5036827;28;20800;-78
2022/06/11 07:01:37;;;;;;;5.15;1.90;;;24.30;56.00;;;;;;5031346;28;20731;-78
2022/06/11 07:04:03;;;;;;;4.88;1.67;;;24.40;55.70;;;;;;5032498;28;20569;-77
2022/06/11 07:06:31;;;;;;;9.80;1.90;;;24.50;55.00;;;;;;5035688;28;20529;-77
2022/06/11 07:08:58;;;;;;;2.47;1.33;;;24.80;54.60;;;;;;5033240;28;20082;-77
2022/06/11 07:11:24;;;;;;;5.38;1.73;;;25.00;54.30;;;;;;5033495;28;20576;-77
2022/06/11 07:13:50;;;;;;;6.38;1.92;;;25.30;54.50;;;;;;5034134;28;20029;-77
2022/06/11 07:16:21;;;;;;;3.67;1.85;;;25.80;54.30;;;;;;5032557;28;20799;-78
2022/06/11 07:18:52;;;;;;;15.07;3.30;;;26.10;53.10;;;;;;5034035;28;20033;-78
2022/06/11 07:21:27;;;;;;;3.72;1.60;;;26.50;51.50;;;;;;5035829;28;20125;-76
2022/06/11 07:23:58;;;;;;;6.47;1.75;;;26.60;50.20;;;;;;5035699;28;20029;-77
2022/06/11 07:26:29;;;;;;;4.00;1.52;;;26.50;50.20;;;;;;5034008;28;20838;-76
2022/06/11 07:29:27;;;;;;;6.35;1.83;;;26.40;50.80;;;;;;5041144;28;20909;-77
2022/06/11 07:31:56;;;;;;;4.07;1.73;;;26.50;50.90;;;;;;5034293;28;20029;-77
2022/06/11 07:34:22;;;;;;;3.55;1.70;;;26.50;50.50;;;;;;5035549;28;20037;-73
2022/06/11 07:36:48;;;;;;;7.10;3.40;;;26.30;49.60;;;;;;5041527;28;20017;-68
2022/06/11 07:39:15;;;;;;;9.65;3.55;;;26.10;50.00;;;;;;5036975;28;20063;-67
2022/06/11 07:41:42;;;;;;;11.45;4.40;;;26.00;50.30;;;;;;5039037;28;20763;-67
2022/06/11 07:44:08;;;;;;;4.30;2.72;;;26.10;50.10;;;;;;5033915;28;20488;-67
2022/06/11 07:46:34;;;;;;;16.17;5.13;;;26.30;50.40;;;;;;5037244;28;20044;-66
2022/06/11 07:49:00;;;;;;;4.03;2.00;;;26.30;50.40;;;;;;5033889;28;20025;-66
2022/06/11 07:51:26;;;;;;;7.25;4.90;;;26.60;49.30;;;;;;5030790;28;20728;-67
2022/06/11 07:53:52;;;;;;;10.77;5.72;;;26.70;48.60;;;;;;5034620;28;20043;-67
2022/06/11 07:56:19;;;;;;;11.10;4.75;;;26.70;48.30;;;;;;5036171;28;20416;-66
2022/06/11 07:58:45;;;;;;;11.40;6.07;;;26.70;48.10;;;;;;5033475;28;20139;-66
2022/06/11 08:01:11;;;;;;;4.70;2.53;;;26.60;49.00;;;;;;5035984;28;20039;-66
2022/06/11 08:03:38;;;;;;;10.35;3.55;;;26.70;48.70;;;;;;5031817;28;20159;-66
2022/06/11 08:06:05;;;;;;;7.22;1.35;;;26.80;48.60;;;;;;5035503;28;20883;-66
2022/06/11 08:08:32;;;;;;;6.88;3.00;;;26.90;47.70;;;;;;5036401;28;20030;-66
2022/06/11 08:11:00;;;;;;;4.32;2.38;;;26.80;48.10;;;;;;5037054;28;20512;-66
2022/06/11 08:13:26;;;;;;;4.10;2.15;;;27.30;47.30;;;;;;5040209;28;20029;-66
2022/06/11 08:15:53;;;;;;;5.55;2.53;;;27.80;46.20;;;;;;5041086;28;20683;-66
2022/06/11 08:18:20;;;;;;;4.75;1.58;;;28.10;45.30;;;;;;5037851;28;20507;-65
2022/06/11 08:20:47;;;;;;;6.55;2.22;;;28.40;44.70;;;;;;5038467;28;20059;-66
2022/06/11 08:23:13;;;;;;;11.43;2.08;;;28.60;45.20;;;;;;5033280;28;20791;-66
2022/06/11 08:25:39;;;;;;;6.75;2.83;;;28.60;44.80;;;;;;5038201;28;20106;-66
2022/06/11 08:28:06;;;;;;;8.25;3.90;;;28.60;44.80;;;;;;5034452;28;20120;-66
2022/06/11 08:30:33;;;;;;;8.98;3.90;;;28.70;44.80;;;;;;5040983;28;20691;-66
2022/06/11 08:33:00;;;;;;;4.78;2.30;;;28.90;44.10;;;;;;5039761;28;20086;-66
2022/06/11 08:35:28;;;;;;;4.78;2.00;;;28.70;43.80;;;;;;5034728;28;20032;-66
2022/06/11 08:37:54;;;;;;;4.70;2.17;;;28.60;43.80;;;;;;5033409;28;20040;-65
2022/06/11 08:40:37;;;;;;;10.38;3.10;;;28.40;44.40;;;;;;5029181;28;20033;-66
2022/06/11 08:43:26;;;;;;;4.55;1.63;;;28.50;44.30;;;;;;5034028;28;20055;-67
2022/06/11 08:46:12;;;;;;;4.47;1.52;;;28.70;44.80;;;;;;5033630;28;20020;-66
2022/06/11 08:48:45;;;;;;;;;;;28.80;45.10;;;;;;5034364;28;20048;-67
2022/06/11 08:51:13;;;;;;;4.10;1.10;;;29.00;43.80;;;;;;5032171;28;19920;-65
2022/06/11 08:53:39;;;;;;;3.17;1.55;;;29.30;44.10;;;;;;5032817;28;20028;-72
2022/06/11 08:56:35;;;;;;;2.67;1.20;;;29.40;43.20;;;;;;5035631;28;20302;-72
2022/06/11 08:59:34;;;;;;;4.70;1.10;;;29.60;43.30;;;;;;5009669;28;20531;-72
2022/06/11 09:02:21;;;;;;;2.78;1.13;;;29.60;43.30;;;;;;5035979;28;20127;-72
2022/06/11 09:05:06;;;;;;;2.90;1.58;;;29.80;43.60;;;;;;5035120;28;20028;-72
2022/06/11 09:07:41;;;;;;;2.45;1.05;;;29.90;42.60;;;;;;5035625;28;20037;-72
2022/06/11 09:10:17;;;;;;;3.93;1.90;;;29.70;42.50;;;;;;5035140;28;20053;-73
2022/06/11 09:13:00;;;;;;;9.68;5.88;;;29.60;43.60;;;;;;5031865;28;20519;-73
2022/06/11 09:15:50;;;;;;;130.57;51.22;;;29.60;42.90;;;;;;5032864;28;20583;-70
2022/06/11 09:18:28;;;;;;;521.72;164.10;;;29.70;41.90;;;;;;5034776;28;20033;-78
2022/06/11 09:21:03;;;;;;;868.40;421.80;;;29.70;42.20;;;;;;5033685;28;20594;-78
2022/06/11 09:23:54;;;;;;;224.10;89.30;;;29.80;42.30;;;;;;5029408;28;20090;-79
2022/06/11 09:26:51;;;;;;;101.50;47.88;;;30.00;41.70;;;;;;5037428;28;20029;-78
2022/06/11 09:29:27;;;;;;;11.93;5.43;;;30.40;41.60;;;;;;5033281;28;20029;-77
2022/06/11 09:32:12;;;;;;;5.97;3.63;;;30.80;40.30;;;;;;5037144;28;20029;-77
2022/06/11 09:34:38;;;;;;;5.03;1.67;;;31.20;39.80;;;;;;5036366;28;20324;-76
2022/06/11 09:37:10;;;;;;;5.07;1.52;;;31.40;37.30;;;;;;5035665;28;20036;-77
2022/06/11 09:39:46;;;;;;;2.42;1.20;;;31.20;38.50;;;;;;5030746;28;20084;-78
2022/06/11 09:42:24;;;;;;;3.40;1.23;;;31.10;39.80;;;;;;5035593;28;20033;-76
2022/06/11 09:45:04;;;;;;;2.85;1.15;;;31.10;39.60;;;;;;5027004;28;20025;-78
2022/06/11 09:47:53;;;;;;;5.60;1.08;;;31.10;38.90;;;;;;5037786;28;20072;-76
2022/06/11 09:50:48;;;;;;;2.47;0.80;;;31.10;39.90;;;;;;5035402;28;20040;-76
2022/06/11 09:53:50;;;;;;;3.30;1.30;;;31.00;38.90;;;;;;5039160;28;20040;-77
2022/06/11 09:56:20;;;;;;;2.50;1.00;;;30.80;39.30;;;;;;5032869;28;20033;-76
2022/06/11 09:59:05;;;;;;;1.90;0.95;;;30.60;40.10;;;;;;5029899;28;20025;-77
2022/06/11 10:01:36;;;;;;;4.10;1.23;;;30.60;39.70;;;;;;5032983;28;20033;-77
2022/06/11 10:04:08;;;;;;;4.57;1.10;;;30.60;40.40;;;;;;5035355;28;20432;-77
2022/06/11 10:06:53;;;;;;;3.72;1.23;;;30.90;40.00;;;;;;5030622;28;20037;-77
2022/06/11 10:09:24;;;;;;;2.37;1.10;;;31.10;39.40;;;;;;5038324;28;20033;-76
2022/06/11 10:11:58;;;;;;;1.45;0.80;;;31.20;39.20;;;;;;5035342;28;20025;-77
2022/06/11 10:14:30;;;;;;;3.00;1.00;;;31.30;39.40;;;;;;5037094;28;20037;-77
2022/06/11 10:17:27;;;;;;;2.90;0.85;;;31.10;40.00;;;;;;5039139;28;20033;-77
2022/06/11 10:20:28;;;;;;;2.95;1.00;;;30.90;40.30;;;;;;5034408;28;20057;-77
2022/06/11 10:22:58;;;;;;;2.10;0.95;;;30.90;40.70;;;;;;5033724;28;20041;-77
2022/06/11 10:25:35;;;;;;;1.58;0.80;;;31.10;40.10;;;;;;5030401;28;20032;-76
2022/06/11 10:28:24;;;;;;;2.17;1.00;;;31.10;39.70;;;;;;5029982;28;20089;-77
2022/06/11 10:30:59;;;;;;;1.75;0.70;;;31.00;40.10;;;;;;5029455;28;20040;-76
2022/06/11 10:33:38;;;;;;;3.65;0.70;;;30.80;39.30;;;;;;5032703;28;20040;-77
2022/06/11 10:36:16;;;;;;;3.55;0.80;;;30.70;38.60;;;;;;5036114;28;20111;-77
2022/06/11 10:38:45;;;;;;;1.48;0.65;;;30.70;38.00;;;;;;5035315;28;20037;-77
2022/06/11 10:41:32;;;;;;;2.67;0.98;;;30.70;38.30;;;;;;5033099;28;20029;-77
2022/06/11 10:44:14;;;;;;;1.13;0.80;;;30.80;38.80;;;;;;5039842;28;20132;-77
2022/06/11 10:46:40;;;;;;;2.50;1.10;;;30.50;39.30;;;;;;5036354;28;20033;-76
2022/06/11 10:49:17;;;;;;;3.38;1.00;;;30.30;40.00;;;;;;5034341;28;20173;-77
2022/06/11 10:51:55;;;;;;;2.50;0.80;;;30.10;41.00;;;;;;5033042;28;20034;-77
2022/06/11 10:54:23;;;;;;;3.00;0.77;;;29.90;40.70;;;;;;5034021;28;20038;-77
2022/06/11 10:56:54;;;;;;;3.30;0.80;;;29.60;41.10;;;;;;5034889;28;20033;-77
2022/06/11 10:59:22;;;;;;;2.90;1.00;;;29.50;41.30;;;;;;5027065;28;20033;-78
2022/06/11 11:02:03;;;;;;;2.38;0.80;;;29.70;41.30;;;;;;5031336;28;20030;-78
2022/06/11 11:04:54;;;;;;;5.97;1.00;;;30.00;41.20;;;;;;5043210;28;20069;-77
2022/06/11 11:07:20;;;;;;;2.10;0.88;;;30.30;40.60;;;;;;5047070;28;20044;-77
2022/06/11 11:09:47;;;;;;;2.42;0.80;;;30.60;40.00;;;;;;5034876;28;20029;-77
2022/06/11 11:12:33;;;;;;;3.22;1.20;;;30.60;40.10;;;;;;5034645;28;20032;-76
2022/06/11 11:15:10;;;;;;;3.70;1.25;;;30.60;39.60;;;;;;5031032;28;20038;-76
2022/06/11 11:17:45;;;;;;;2.88;1.13;;;30.50;39.70;;;;;;5038250;28;20037;-75
2022/06/11 11:20:32;;;;;;;2.67;1.23;;;30.50;39.30;;;;;;5034778;28;20028;-77
2022/06/11 11:23:10;;;;;;;1.70;1.30;;;30.30;39.70;;;;;;5039433;28;20038;-77
2022/06/11 11:25:42;;;;;;;3.22;1.20;;;29.90;41.50;;;;;;5053943;28;20503;-77
2022/06/11 11:28:24;;;;;;;2.45;0.90;;;29.40;41.50;;;;;;5039925;28;20025;-77
2022/06/11 11:31:03;;;;;;;2.33;1.10;;;28.80;41.80;;;;;;5042229;28;20739;-77
2022/06/11 11:33:36;;;;;;;1.15;0.85;;;28.30;43.00;;;;;;5035731;28;20037;-77
2022/06/11 11:36:21;;;;;;;2.40;1.30;;;27.90;44.50;;;;;;5037135;28;20751;-77
2022/06/11 11:39:13;;;;;;;3.20;1.40;;;27.60;45.50;;;;;;5034827;28;20059;-77
2022/06/11 11:42:02;;;;;;;3.08;1.30;;;27.30;47.10;;;;;;5028276;28;20471;-77
2022/06/11 11:44:28;;;;;;;8.82;4.78;;;27.10;49.10;;;;;;5040353;28;20707;-77
2022/06/11 11:46:59;;;;;;;6.07;4.50;;;27.10;49.10;;;;;;5031447;28;20119;-77
2022/06/11 11:49:31;;;;;;;4.53;3.10;;;27.10;48.90;;;;;;5038381;28;20033;-77
2022/06/11 11:52:15;;;;;;;8.90;3.95;;;27.40;49.10;;;;;;5037120;28;20699;-77
2022/06/11 11:55:26;;;;;;;4.63;2.67;;;27.60;48.50;;;;;;5033993;28;20025;-77
2022/06/11 11:57:59;;;;;;;8.70;5.20;;;27.90;48.30;;;;;;4962269;28;20034;-77
2022/06/11 12:00:30;;;;;;;7.47;4.90;;;28.30;47.70;;;;;;5020980;28;20133;-77
2022/06/11 12:03:21;;;;;;;5.05;1.52;;;28.70;47.20;;;;;;5039196;28;20037;-77
2022/06/11 12:05:54;;;;;;;2.78;1.25;;;29.20;46.10;;;;;;5039199;28;20867;-77
2022/06/11 12:08:46;;;;;;;4.00;1.30;;;29.60;45.90;;;;;;5033315;28;20111;-77
2022/06/11 12:11:23;;;;;;;3.65;0.98;;;29.80;42.30;;;;;;5035565;28;20049;-77
2022/06/11 12:13:59;;;;;;;3.28;1.20;;;29.90;42.60;;;;;;5031329;28;20029;-77
2022/06/11 12:16:32;;;;;;;3.90;1.25;;;29.90;43.80;;;;;;5029929;28;20037;-77
2022/06/11 12:19:20;;;;;;;5.20;1.33;;;29.90;44.40;;;;;;5035865;28;20044;-77
2022/06/11 12:21:56;;;;;;;5.95;1.48;;;29.90;44.80;;;;;;5035066;28;20035;-77
2022/06/11 12:24:37;;;;;;;4.95;1.38;;;29.90;44.90;;;;;;5036157;28;20038;-77
2022/06/11 12:27:22;;;;;;;5.38;1.48;;;29.70;45.20;;;;;;5039557;28;20029;-77
2022/06/11 12:29:52;;;;;;;6.80;2.22;;;29.60;45.00;;;;;;5033058;28;20506;-77
2022/06/11 12:32:23;;;;;;;7.28;3.35;;;29.30;45.50;;;;;;5034079;28;20036;-77
2022/06/11 12:34:51;;;;;;;9.07;5.60;;;29.10;45.90;;;;;;5038333;28;20036;-77
2022/06/11 12:37:23;;;;;;;4.18;3.03;;;28.90;46.60;;;;;;5035824;28;20112;-78
2022/06/11 12:40:00;;;;;;;7.18;1.88;;;28.80;46.30;;;;;;5033093;28;21116;-77
2022/06/11 12:42:39;;;;;;;6.20;3.97;;;28.80;45.80;;;;;;5036722;28;20516;-77
2022/06/11 12:45:23;;;;;;;3.20;2.13;;;28.80;46.60;;;;;;5038035;28;20546;-77
2022/06/11 12:48:20;;;;;;;11.55;2.50;;;28.90;46.50;;;;;;5043190;28;20064;-77
2022/06/11 12:51:01;;;;;;;2.35;1.63;;;29.30;46.10;;;;;;5033915;28;20708;-73
2022/06/11 12:53:51;;;;;;;6.90;4.18;;;29.30;45.80;;;;;;5033107;28;20041;-73
2022/06/11 12:56:28;;;;;;;6.03;1.85;;;29.20;46.10;;;;;;5033416;28;20036;-77
2022/06/11 12:59:09;;;;;;;3.03;1.02;;;29.10;45.40;;;;;;5032428;28;20115;-77
2022/06/11 13:02:07;;;;;;;2.63;1.20;;;29.00;44.90;;;;;;5031514;28;20215;-77
2022/06/11 13:05:19;;;;;;;1.60;1.00;;;28.90;45.00;;;;;;5017289;28;20043;-77
2022/06/11 13:07:44;;;;;;;2.72;0.95;;;28.80;44.90;;;;;;5035148;28;20024;-77
2022/06/11 13:10:19;;;;;;;5.00;0.85;;;28.80;44.30;;;;;;5035734;28;20060;-78
2022/06/11 13:13:03;;;;;;;1.40;0.70;;;28.80;43.10;;;;;;5030581;28;20123;-77
2022/06/11 13:15:47;;;;;;;1.35;0.90;;;28.90;43.30;;;;;;5033091;28;20477;-76
2022/06/11 13:18:26;;;;;;;4.45;0.88;;;29.10;42.80;;;;;;5034016;28;20114;-77